Time;durP1;ratioP1;P1;durP2;ratioP2;P2;SDS_P1;SDS_P2;PMS_P1;PMS_P2;Temp;Humidity;BMP_temperature;BMP_pressure;BME280_temperature;BME280_humidity;BME280_pressure;Samples;Min_cycle;Max_cycle;Signal;HPM_P1;HPM_P2
2024/03/01 00:02:14;;;;;;;0.20;0.20;;;;;;;12.27;100.00;75117.00;4844717;29;20044;-85
2024/03/01 00:04:40;;;;;;;0.20;0.20;;;;;;;12.39;100.00;75139.06;4889823;29;20072;-85
2024/03/01 00:07:05;;;;;;;0.20;0.20;;;;;;;12.39;100.00;75132.94;4878319;29;20575;-85
2024/03/01 00:09:32;;;;;;;0.30;0.30;;;;;;;12.25;100.00;75117.41;4894611;29;20557;-85
2024/03/01 00:12:01;;;;;;;0.20;0.20;;;;;;;12.10;100.00;75098.84;4894691;29;20037;-85
2024/03/01 00:14:27;;;;;;;0.20;0.20;;;;;;;12.16;100.00;75109.41;4894172;29;20033;-84
2024/03/01 00:16:52;;;;;;;0.20;0.20;;;;;;;11.87;100.00;75072.53;4878240;29;20143;-84
2024/03/01 00:19:18;;;;;;;0.20;0.20;;;;;;;11.86;100.00;75076.88;4878710;29;20033;-85
2024/03/01 00:21:48;;;;;;;0.20;0.20;;;;;;;12.48;100.00;75143.72;4879701;29;20037;-84
2024/03/01 00:24:25;;;;;;;0.20;0.20;;;;;;;11.53;100.00;75030.28;4898073;29;20029;-84
2024/03/01 00:26:51;;;;;;;0.20;0.20;;;;;;;11.94;100.00;75080.91;4904344;29;20035;-85
2024/03/01 00:29:18;;;;;;;0.20;0.20;;;;;;;11.96;100.00;75082.69;4888984;29;20017;-85
2024/03/01 00:32:12;;;;;;;0.20;0.20;;;;;;;11.87;100.00;75072.53;4889078;29;20052;-86
2024/03/01 00:34:38;;;;;;;;;;;;;;;12.07;100.00;75096.44;4905030;29;20013;-87
2024/03/01 00:37:23;;;;;;;0.22;0.22;;;;;;;11.54;100.00;75034.25;4888034;29;19919;-86
2024/03/01 00:40:49;;;;;;;0.20;0.20;;;;;;;11.80;100.00;75064.75;4888391;29;20029;-86
2024/03/01 00:43:24;;;;;;;0.20;0.20;;;;;;;11.98;100.00;75087.84;4902355;29;20037;-85
2024/03/01 00:45:58;;;;;;;0.20;0.20;;;;;;;12.15;100.00;75104.84;4873796;29;20075;-86
2024/03/01 00:48:59;;;;;;;0.20;0.20;;;;;;;12.01;100.00;75086.50;4898369;29;20048;-85
2024/03/01 00:51:31;;;;;;;0.20;0.20;;;;;;;11.80;100.00;75066.91;4904960;29;20031;-87
2024/03/01 00:54:55;;;;;;;0.20;0.20;;;;;;;11.08;100.00;74973.72;4890041;29;20142;-86
2024/03/01 00:57:55;;;;;;;0.20;0.20;;;;;;;11.47;100.00;75028.06;4905374;29;20033;-85
2024/03/01 01:00:53;;;;;;;0.20;0.20;;;;;;;11.76;100.00;75059.34;4871485;29;20058;-87
2024/03/01 01:03:19;;;;;;;0.20;0.20;;;;;;;11.70;100.00;75052.19;4888166;29;20025;-85
2024/03/01 01:06:13;;;;;;;0.20;0.20;;;;;;;11.59;100.00;75039.63;4867004;29;20081;-86
2024/03/01 01:09:03;;;;;;;0.20;0.20;;;;;;;11.87;100.00;75072.53;4827496;29;20118;-86
2024/03/01 01:11:57;;;;;;;0.20;0.20;;;;;;;11.84;100.00;75068.34;4850123;29;20026;-86
2024/03/01 01:14:31;;;;;;;0.20;0.20;;;;;;;12.07;100.00;75096.44;4866020;29;20022;-86
2024/03/01 01:17:37;;;;;;;0.20;0.20;;;;;;;11.75;100.00;75061.53;4874682;29;20045;-86
2024/03/01 01:20:38;;;;;;;0.20;0.20;;;;;;;12.28;100.00;75125.91;4869279;29;20061;-86
2024/03/01 01:23:38;;;;;;;0.20;0.20;;;;;;;11.96;100.00;75083.28;4884257;29;20037;-86
2024/03/01 01:26:23;;;;;;;0.20;0.20;;;;;;;12.00;100.00;75087.50;4869146;29;20042;-86
2024/03/01 01:28:53;;;;;;;0.20;0.20;;;;;;;12.20;100.00;75110.81;4873982;29;20037;-86
2024/03/01 01:31:21;;;;;;;0.20;0.20;;;;;;;11.82;100.00;75066.53;4880348;29;20037;-85
2024/03/01 01:34:08;;;;;;;0.20;0.20;;;;;;;11.72;100.00;75060.13;4867867;29;20065;-85
2024/03/01 01:37:21;;;;;;;0.20;0.20;;;;;;;11.68;100.00;75049.81;4882726;29;20068;-85
2024/03/01 01:40:09;;;;;;;0.20;0.20;;;;;;;11.46;100.00;75027.47;4871230;29;20045;-86
2024/03/01 01:43:07;;;;;;;0.20;0.20;;;;;;;11.24;100.00;74998.41;4867626;29;20043;-86
2024/03/01 01:45:51;;;;;;;0.20;0.20;;;;;;;11.09;100.00;74980.47;4902770;29;20021;-86
2024/03/01 01:49:27;;;;;;;0.20;0.20;;;;;;;10.77;100.00;74943.41;4904029;29;20040;-86
2024/03/01 01:52:41;;;;;;;0.20;0.20;;;;;;;10.98;100.00;74971.28;4845697;29;20037;-87
2024/03/01 01:55:30;;;;;;;0.20;0.20;;;;;;;10.85;100.00;74952.97;4878893;29;20029;-86
2024/03/01 01:58:21;;;;;;;0.20;0.20;;;;;;;11.15;100.00;74990.41;4903811;29;20037;-86
2024/03/01 02:01:07;;;;;;;0.20;0.20;;;;;;;10.70;100.00;74935.63;4910568;29;20025;-87
2024/03/01 02:04:41;;;;;;;0.20;0.20;;;;;;;10.94;100.00;74963.13;4901424;29;20049;-86
2024/03/01 02:07:40;;;;;;;0.20;0.20;;;;;;;10.50;100.00;74917.28;4877167;29;20089;-85
2024/03/01 02:10:53;;;;;;;0.20;0.20;;;;;;;10.71;100.00;74939.03;4897853;29;20067;-86
2024/03/01 02:14:30;;;;;;;0.20;0.20;;;;;;;11.25;100.00;74999.59;4884879;29;20050;-87
2024/03/01 02:26:08;;;;;;;0.30;0.30;;;;;;;10.55;100.00;74917.13;4726470;27;20049;-86
2024/03/01 02:28:56;;;;;;;0.20;0.20;;;;;;;10.79;100.00;74940.28;4879023;29;20080;-86
2024/03/01 02:31:40;;;;;;;0.28;0.28;;;;;;;10.49;100.00;74911.16;4871848;29;20045;-86
2024/03/01 02:34:09;;;;;;;0.20;0.20;;;;;;;10.54;100.00;74921.47;4882958;29;20013;-86
2024/03/01 02:36:40;;;;;;;0.20;0.20;;;;;;;10.62;100.00;74928.25;4865518;29;20149;-86
2024/03/01 02:39:16;;;;;;;0.20;0.20;;;;;;;10.69;100.00;74939.97;4866306;29;20037;-86
2024/03/01 02:41:53;;;;;;;0.20;0.20;;;;;;;10.38;100.00;74903.53;4866987;29;20030;-86
2024/03/01 02:44:36;;;;;;;0.20;0.20;;;;;;;10.54;100.00;74915.94;4882370;29;20093;-85
2024/03/01 02:47:08;;;;;;;0.20;0.20;;;;;;;10.66;100.00;74930.28;4864622;29;20037;-85
2024/03/01 02:49:43;;;;;;;0.20;0.20;;;;;;;10.97;100.00;74972.84;4878725;29;20054;-85
2024/03/01 02:52:08;;;;;;;0.20;0.20;;;;;;;10.83;100.00;74947.81;4877737;29;20048;-85
2024/03/01 02:54:41;;;;;;;0.20;0.20;;;;;;;10.73;100.00;74942.00;4877494;29;20029;-86
2024/03/01 02:57:07;;;;;;;0.20;0.20;;;;;;;11.16;100.00;74997.72;4878945;29;20033;-86
2024/03/01 02:59:57;;;;;;;0.20;0.20;;;;;;;11.01;100.00;74977.03;4861839;29;20056;-86
2024/03/01 03:03:10;;;;;;;0.20;0.20;;;;;;;11.01;100.00;74972.09;4877751;29;20049;-86
2024/03/01 03:06:15;;;;;;;0.20;0.20;;;;;;;10.93;100.00;74962.53;4882057;29;20053;-86
2024/03/01 03:09:09;;;;;;;0.20;0.20;;;;;;;10.97;100.00;74972.25;4867983;29;20029;-86
2024/03/01 03:11:44;;;;;;;0.20;0.20;;;;;;;10.80;100.00;74949.75;4883785;29;20039;-86
2024/03/01 03:14:24;;;;;;;0.20;0.20;;;;;;;10.78;100.00;74944.03;4865317;29;20010;-87
2024/03/01 03:16:56;;;;;;;0.20;0.20;;;;;;;10.99;100.00;74969.72;4834123;29;20041;-87
2024/03/01 03:19:43;;;;;;;0.30;0.30;;;;;;;11.08;100.00;74979.25;4864131;29;20045;-86
2024/03/01 03:22:56;;;;;;;0.25;0.25;;;;;;;10.75;100.00;74941.03;4865486;29;20030;-85
2024/03/01 03:26:17;;;;;;;0.20;0.20;;;;;;;10.82;100.00;74949.41;4866013;29;20073;-85
2024/03/01 03:29:43;;;;;;;0.20;0.20;;;;;;;11.32;100.00;75007.94;4865997;29;20071;-86
2024/03/01 03:32:53;;;;;;;0.20;0.20;;;;;;;11.08;100.00;74979.88;4850280;29;20090;-87
2024/03/01 03:36:10;;;;;;;0.25;0.25;;;;;;;11.16;100.00;74986.06;4865609;29;20040;-87
2024/03/01 03:39:07;;;;;;;0.20;0.20;;;;;;;11.30;100.00;75008.34;4826111;29;20033;-86
2024/03/01 03:41:39;;;;;;;0.20;0.20;;;;;;;10.83;100.00;74950.59;4840145;29;20074;-85
2024/03/01 03:44:04;;;;;;;0.20;0.20;;;;;;;10.73;100.00;74939.22;4844631;29;20038;-86
2024/03/01 03:46:30;;;;;;;0.20;0.20;;;;;;;10.48;100.00;74912.72;4847167;29;20026;-86
2024/03/01 03:48:57;;;;;;;0.20;0.20;;;;;;;10.49;100.00;74910.56;4831801;29;20034;-85
2024/03/01 03:51:57;;;;;;;0.20;0.20;;;;;;;11.11;100.00;74982.84;4847108;29;20053;-85
2024/03/01 03:54:38;;;;;;;0.20;0.20;;;;;;;11.19;100.00;74997.97;4792745;29;20070;-85
2024/03/01 03:57:06;;;;;;;0.20;0.20;;;;;;;11.25;100.00;75002.34;4791505;30;20059;-87
2024/03/01 03:59:57;;;;;;;0.20;0.20;;;;;;;11.30;100.00;75010.50;4806419;30;20039;-85
2024/03/01 04:03:00;;;;;;;0.20;0.20;;;;;;;11.54;100.00;75033.66;4794475;30;20365;-87
2024/03/01 04:06:08;;;;;;;0.20;0.20;;;;;;;11.41;100.00;75018.13;4808757;30;20030;-86
2024/03/01 04:08:44;;;;;;;0.20;0.20;;;;;;;11.16;100.00;74988.81;4794429;30;20091;-87
2024/03/01 04:11:21;;;;;;;0.20;0.20;;;;;;;11.30;100.00;75011.09;4794669;29;20031;-87
2024/03/01 04:14:14;;;;;;;0.20;0.20;;;;;;;10.70;100.00;74935.03;4809413;29;20128;-86
2024/03/01 04:17:17;;;;;;;0.20;0.20;;;;;;;11.29;100.00;75004.34;4809335;29;20031;-87
2024/03/01 04:20:37;;;;;;;0.20;0.20;;;;;;;11.36;100.00;75009.38;4808533;29;20042;-85
2024/03/01 04:23:14;;;;;;;0.20;0.20;;;;;;;10.89;100.00;74957.16;4793725;30;20048;-86
2024/03/01 04:26:28;;;;;;;0.20;0.20;;;;;;;10.79;100.00;74945.81;4796026;29;20106;-86
2024/03/01 04:30:04;;;;;;;0.20;0.20;;;;;;;10.48;100.00;74907.19;4781840;30;20040;-86
2024/03/01 04:33:12;;;;;;;0.20;0.20;;;;;;;10.16;100.00;74871.72;4777648;30;20032;-86
2024/03/01 04:41:25;;;;;;;0.20;0.20;;;;;;;9.31;100.00;74772.00;4974536;23;20060;-86
2024/03/01 04:44:44;;;;;;;0.20;0.20;;;;;;;9.51;100.00;74798.06;4941180;29;20397;-86
2024/03/01 04:48:09;;;;;;;0.22;0.22;;;;;;;9.08;100.00;74745.16;4942806;29;20032;-85
2024/03/01 04:51:22;;;;;;;0.20;0.20;;;;;;;9.12;100.00;74753.28;4943253;29;20008;-86
2024/03/01 05:00:13;;;;;;;0.20;0.20;;;;;;;8.92;100.00;74732.78;5113059;23;20121;-87
2024/03/01 05:07:04;;;;;;;0.30;0.30;;;;;;;8.86;100.00;74725.03;4867935;29;20033;-86
2024/03/01 05:24:55;;;;;;;0.25;0.25;;;;;;;8.44;100.00;74675.50;5499168;23;20042;-86
2024/03/01 05:27:39;;;;;;;0.30;0.30;;;;;;;8.78;100.00;74709.94;4832033;29;20054;-85
2024/03/01 05:30:18;;;;;;;;;;;;;;;8.68;100.00;74704.13;4865186;29;20117;-86
2024/03/01 05:32:55;;;;;;;0.20;0.20;;;;;;;8.41;100.00;74672.50;4864810;29;19915;-85
2024/03/01 05:36:24;;;;;;;0.20;0.20;;;;;;;8.51;100.00;74681.09;4867214;29;20054;-87
2024/03/01 05:39:35;;;;;;;0.20;0.20;;;;;;;8.20;100.00;74645.28;4839037;29;20039;-86
2024/03/01 05:42:11;;;;;;;0.20;0.20;;;;;;;8.69;100.00;74699.22;4850678;29;20052;-87
2024/03/01 05:44:44;;;;;;;0.20;0.20;;;;;;;9.08;100.00;74748.50;4851583;29;20059;-85
2024/03/01 05:47:47;;;;;;;0.30;0.30;;;;;;;9.29;100.00;74770.22;4866219;29;20503;-86
2024/03/01 05:50:15;;;;;;;;;;;;;;;9.40;100.00;74785.53;4848507;29;20113;-85
2024/03/01 05:55:31;;;;;;;0.20;0.20;;;;;;;8.87;100.00;74720.69;4852376;29;20053;-85
2024/03/01 05:58:31;;;;;;;0.20;0.20;;;;;;;8.81;100.00;74716.28;4849606;29;20038;-87
2024/03/01 06:01:18;;;;;;;0.20;0.20;;;;;;;8.66;100.00;74701.75;4866436;29;20076;-86
2024/03/01 06:04:10;;;;;;;0.20;0.20;;;;;;;8.62;100.00;74694.22;4849024;29;20030;-87
2024/03/01 06:06:37;;;;;;;0.20;0.20;;;;;;;8.72;100.00;74705.56;4865337;29;20045;-86
2024/03/01 06:09:17;;;;;;;0.20;0.20;;;;;;;8.56;100.00;74689.81;4864542;29;20033;-86
2024/03/01 06:11:43;;;;;;;0.20;0.20;;;;;;;8.63;100.00;74695.44;4843528;29;20034;-86
2024/03/01 06:14:11;;;;;;;0.20;0.20;;;;;;;8.82;100.00;74718.09;4866689;29;20032;-87
2024/03/01 06:23:41;;;;;;;0.20;0.20;;;;;;;8.84;100.00;74717.09;4969076;24;20045;-86
2024/03/01 06:26:56;;;;;;;0.20;0.20;;;;;;;8.89;100.00;74728.59;4877527;29;20098;-87
2024/03/01 06:30:16;;;;;;;0.20;0.20;;;;;;;9.36;100.00;74781.34;4865776;29;20025;-87
2024/03/01 06:33:32;;;;;;;0.20;0.20;;;;;;;9.20;100.00;74770.50;4885567;29;20037;-87
2024/03/01 06:40:21;;;;;;;0.20;0.20;;;;;;;9.37;100.00;74785.28;4886000;29;20068;-86
2024/03/01 06:46:56;;;;;;;0.20;0.20;;;;;;;9.50;100.00;74796.88;5064731;23;20141;-87
2024/03/01 06:49:23;;;;;;;0.20;0.20;;;;;;;9.26;100.00;74766.63;4851551;29;20114;-88
2024/03/01 06:51:49;;;;;;;0.20;0.20;;;;;;;9.44;100.00;74788.13;4879771;29;20037;-86
2024/03/01 06:57:31;;;;;;;0.20;0.20;;;;;;;9.37;100.00;74779.75;1940395;23;20024;-86
2024/03/01 07:00:09;;;;;;;;;;;;;;;9.68;100.00;74821.09;4847792;29;20061;-87
2024/03/01 07:02:49;;;;;;;0.20;0.20;;;;;;;9.53;100.00;74798.28;4846443;29;19992;-85
2024/03/01 07:05:51;;;;;;;0.20;0.20;;;;;;;9.88;100.00;74839.47;4872637;24;20044;-86
2024/03/01 07:15:38;;;;;;;0.20;0.20;;;;;;;10.26;100.00;74883.09;4811113;29;20122;-88
2024/03/01 07:18:51;;;;;;;0.20;0.20;;;;;;;10.01;100.00;74856.56;4810217;29;20043;-86
2024/03/01 07:22:07;;;;;;;0.20;0.20;;;;;;;9.95;100.00;74852.75;4810563;29;20043;-88
2024/03/01 07:24:43;;;;;;;0.20;0.20;;;;;;;10.01;100.00;74853.78;4816752;29;20027;-87
2024/03/01 07:27:20;;;;;;;0.20;0.20;;;;;;;10.38;100.00;74898.00;4943428;23;20097;-87
2024/03/01 07:29:53;;;;;;;0.20;0.20;;;;;;;10.54;100.00;74916.53;4902171;29;20037;-86
2024/03/01 07:32:53;;;;;;;0.20;0.20;;;;;;;10.61;100.00;74927.06;4902102;29;20041;-87
2024/03/01 07:35:25;;;;;;;0.20;0.20;;;;;;;10.81;100.00;74948.19;4897955;29;20045;-86
2024/03/01 07:37:50;;;;;;;0.20;0.20;;;;;;;10.54;100.00;74915.94;4880590;29;20148;-86
2024/03/01 07:40:30;;;;;;;0.20;0.20;;;;;;;10.76;100.00;74942.22;4880954;29;20152;-87
2024/03/01 07:43:10;;;;;;;0.20;0.20;;;;;;;11.07;100.00;74980.84;4882531;29;20020;-87
2024/03/01 07:46:32;;;;;;;0.20;0.20;;;;;;;11.34;100.00;75015.28;4901428;29;20026;-87
2024/03/01 07:49:27;;;;;;;0.20;0.20;;;;;;;11.50;100.00;75032.25;4886826;29;20057;-87
2024/03/01 07:52:21;;;;;;;0.20;0.20;;;;;;;11.49;93.72;75031.03;4901544;29;20029;-84
2024/03/01 07:55:37;;;;;;;0.20;0.20;;;;;;;11.91;88.15;75074.53;4890125;29;20029;-87
2024/03/01 07:58:18;;;;;;;0.20;0.20;;;;;;;11.77;88.06;75057.78;4894260;29;20049;-85
2024/03/01 08:01:37;;;;;;;0.20;0.20;;;;;;;12.42;89.44;75139.91;4886440;29;20021;-87
2024/03/01 08:04:15;;;;;;;0.20;0.20;;;;;;;12.62;85.09;75157.06;4888936;29;20024;-88
2024/03/01 08:07:22;;;;;;;0.20;0.20;;;;;;;12.55;86.98;75152.66;4905882;29;20036;-87
2024/03/01 08:09:53;;;;;;;0.20;0.20;;;;;;;12.36;83.51;75129.94;4901105;29;20064;-87
2024/03/01 08:12:41;;;;;;;0.20;0.20;;;;;;;12.15;85.79;75110.38;4903255;29;20063;-87
2024/03/01 08:15:48;;;;;;;0.20;0.20;;;;;;;12.38;87.36;75137.88;4902803;29;20034;-87
2024/03/01 08:18:40;;;;;;;0.20;0.20;;;;;;;12.36;87.76;75129.94;4910456;29;20052;-86
2024/03/01 08:21:30;;;;;;;0.20;0.20;;;;;;;12.48;85.88;75144.31;4891267;29;20040;-88
2024/03/01 08:24:23;;;;;;;0.30;0.30;;;;;;;12.76;87.50;75171.06;4903677;29;20045;-87
2024/03/01 08:27:08;;;;;;;0.20;0.20;;;;;;;12.93;86.01;75193.56;4899898;29;20047;-87
2024/03/01 08:30:07;;;;;;;0.20;0.20;;;;;;;13.14;81.42;75220.88;4902908;29;20016;-87
2024/03/01 08:32:48;;;;;;;0.20;0.20;;;;;;;12.79;83.21;75177.44;4902721;29;20040;-87
2024/03/01 08:35:29;;;;;;;0.20;0.20;;;;;;;12.80;83.09;75181.41;4884651;29;20048;-86
2024/03/01 08:37:59;;;;;;;0.20;0.20;;;;;;;12.58;83.55;75159.03;4885047;29;20085;-86
2024/03/01 08:40:54;;;;;;;0.20;0.20;;;;;;;12.83;85.24;75188.34;4901607;29;20052;-86
2024/03/01 08:43:25;;;;;;;0.20;0.20;;;;;;;12.62;84.15;75162.63;4897308;29;20041;-86
2024/03/01 08:45:51;;;;;;;0.20;0.20;;;;;;;12.41;86.67;75138.72;4882054;29;20097;-87
2024/03/01 08:48:23;;;;;;;0.20;0.20;;;;;;;12.77;86.37;75178.38;4883548;29;20520;-86
2024/03/01 08:50:55;;;;;;;0.20;0.20;;;;;;;12.36;85.24;75129.34;4884675;29;20037;-87
2024/03/01 08:53:40;;;;;;;0.20;0.20;;;;;;;12.59;86.21;75157.47;4899006;29;20041;-87
2024/03/01 08:56:16;;;;;;;;;;;;;;;12.80;84.73;75182.00;4884388;29;20092;-86
2024/03/01 08:58:48;;;;;;;0.20;0.20;;;;;;;13.27;84.89;75237.06;4901573;29;19911;-86
2024/03/01 09:01:57;;;;;;;0.20;0.20;;;;;;;13.48;81.55;75261.00;4887280;29;20081;-87
2024/03/01 09:04:31;;;;;;;0.20;0.20;;;;;;;13.52;82.76;75263.59;4848986;29;20498;-86
2024/03/01 09:07:13;;;;;;;0.20;0.20;;;;;;;14.74;77.33;75406.16;4893496;29;20021;-85
2024/03/01 09:09:42;;;;;;;0.20;0.20;;;;;;;14.92;70.87;75431.09;4883581;29;20027;-87
2024/03/01 09:12:24;;;;;;;0.20;0.20;;;;;;;14.35;74.44;75363.38;4872527;29;20041;-87
2024/03/01 09:15:26;;;;;;;0.20;0.20;;;;;;;15.57;69.78;75501.63;4899636;29;20037;-86
2024/03/01 09:18:11;;;;;;;0.20;0.20;;;;;;;15.70;67.08;75519.41;4886203;29;20040;-86
2024/03/01 09:20:49;;;;;;;0.20;0.20;;;;;;;16.14;64.25;75574.38;4882628;29;20063;-86
2024/03/01 09:23:16;;;;;;;0.20;0.20;;;;;;;16.10;65.11;75566.78;4884354;29;20032;-86
2024/03/01 09:26:11;;;;;;;0.20;0.20;;;;;;;14.40;72.06;75369.38;4870111;29;20025;-86
2024/03/01 09:33:10;;;;;;;0.20;0.20;;;;;;;13.47;72.93;75259.78;4942382;29;20108;-86
2024/03/01 09:36:28;;;;;;;0.20;0.20;;;;;;;13.19;77.35;75227.47;4939939;29;20056;-85
2024/03/01 09:39:17;;;;;;;0.20;0.20;;;;;;;13.41;73.97;75258.78;4923045;29;20052;-87
2024/03/01 09:42:04;;;;;;;0.20;0.20;;;;;;;13.71;73.68;75285.16;4898322;29;20040;-85
2024/03/01 09:47:58;;;;;;;0.20;0.20;;;;;;;15.62;60.95;75512.59;4919156;29;20063;-87
2024/03/01 09:50:48;;;;;;;0.20;0.20;;;;;;;16.01;61.49;75552.59;4912028;29;20048;-85
2024/03/01 09:53:54;;;;;;;0.20;0.20;;;;;;;15.48;61.50;75493.63;4894003;29;20032;-86
2024/03/01 09:56:41;;;;;;;0.20;0.20;;;;;;;15.34;59.85;75482.41;4872404;29;20040;-86
2024/03/01 09:59:42;;;;;;;0.20;0.20;;;;;;;15.92;60.73;75543.00;4919477;29;20048;-85
2024/03/01 10:02:36;;;;;;;0.20;0.20;;;;;;;16.60;55.30;75625.56;4900801;29;20485;-85
2024/03/01 10:05:39;;;;;;;0.20;0.20;;;;;;;16.46;55.51;75611.56;4897644;29;20036;-86
2024/03/01 10:08:45;;;;;;;0.20;0.20;;;;;;;17.48;53.12;75731.56;4902355;29;20028;-86
2024/03/01 10:11:33;;;;;;;0.20;0.20;;;;;;;17.11;52.36;75682.78;4888728;29;20072;-86
2024/03/01 10:14:17;;;;;;;0.20;0.20;;;;;;;16.92;51.38;75665.56;4903003;29;20016;-86
2024/03/01 10:17:17;;;;;;;0.20;0.20;;;;;;;16.62;51.10;75625.19;4902014;29;20080;-86
2024/03/01 10:20:14;;;;;;;0.20;0.20;;;;;;;17.58;50.46;75738.00;4916621;29;20131;-85
2024/03/01 10:23:29;;;;;;;0.20;0.20;;;;;;;16.97;51.13;75671.56;4902926;29;20024;-86
2024/03/01 10:26:33;;;;;;;0.20;0.20;;;;;;;17.76;48.75;75764.59;4920396;29;20066;-85
2024/03/01 10:29:53;;;;;;;0.20;0.20;;;;;;;18.13;47.65;75802.22;4895732;29;20064;-85
2024/03/01 10:33:07;;;;;;;0.20;0.20;;;;;;;18.05;46.40;75793.22;4853494;29;20079;-85
2024/03/01 10:35:44;;;;;;;0.20;0.20;;;;;;;18.66;47.01;75868.06;4891457;29;20033;-85
2024/03/01 10:38:49;;;;;;;0.20;0.20;;;;;;;18.01;46.64;75788.44;4899072;29;20028;-87
2024/03/01 10:41:39;;;;;;;0.20;0.20;;;;;;;18.64;48.06;75862.25;4884276;29;20025;-84
2024/03/01 10:45:03;;;;;;;0.20;0.20;;;;;;;19.19;46.72;75924.97;4903766;29;20041;-84
2024/03/01 10:47:32;;;;;;;0.20;0.20;;;;;;;18.96;45.42;75900.13;4811870;29;20038;-84
2024/03/01 10:50:36;;;;;;;0.20;0.20;;;;;;;18.31;46.64;75827.22;4809680;29;20043;-85
2024/03/01 10:53:18;;;;;;;0.20;0.20;;;;;;;17.91;49.32;75779.22;4808419;29;20039;-86
2024/03/01 10:56:12;;;;;;;0.20;0.20;;;;;;;17.20;51.54;75699.16;4808167;29;20038;-86
2024/03/01 10:59:10;;;;;;;0.20;0.20;;;;;;;17.24;53.15;75703.97;4810307;29;20073;-85
2024/03/01 11:01:55;;;;;;;0.20;0.20;;;;;;;17.19;50.77;75689.56;4806420;29;20281;-85
2024/03/01 11:04:36;;;;;;;0.20;0.20;;;;;;;17.53;49.71;75735.38;4805529;29;20031;-86
2024/03/01 11:07:49;;;;;;;0.20;0.20;;;;;;;17.48;51.63;75726.59;4807577;29;20098;-86
2024/03/01 11:11:12;;;;;;;0.20;0.20;;;;;;;17.83;50.55;75773.00;4793901;29;20027;-85
2024/03/01 11:14:22;;;;;;;0.20;0.20;;;;;;;16.75;52.64;75640.19;4757153;30;20075;-86
2024/03/01 11:16:55;;;;;;;0.20;0.20;;;;;;;16.85;51.78;75651.59;4729296;30;20052;-85
2024/03/01 11:19:41;;;;;;;0.20;0.20;;;;;;;16.22;53.55;75581.19;4754200;30;20043;-86
2024/03/01 11:22:40;;;;;;;0.20;0.20;;;;;;;16.15;56.21;75572.78;4807847;30;20027;-86
2024/03/01 11:25:22;;;;;;;0.20;0.20;;;;;;;16.56;55.72;75620.75;4808294;30;20041;-86
2024/03/01 11:27:56;;;;;;;0.20;0.20;;;;;;;17.14;51.68;75686.38;4813942;29;20054;-85
2024/03/01 11:30:59;;;;;;;0.20;0.20;;;;;;;16.86;49.99;75658.97;4833490;29;20053;-85
2024/03/01 11:33:41;;;;;;;0.20;0.20;;;;;;;17.21;48.56;75694.19;4885034;29;20481;-84
2024/03/01 11:36:34;;;;;;;0.20;0.20;;;;;;;18.01;47.13;75785.63;4865405;29;20037;-86
2024/03/01 11:39:45;;;;;;;0.20;0.20;;;;;;;17.34;47.52;75709.19;4900367;29;20017;-86
2024/03/01 11:42:55;;;;;;;0.20;0.20;;;;;;;18.78;47.04;75879.72;4880799;29;20030;-85
2024/03/01 11:45:52;;;;;;;0.20;0.20;;;;;;;18.06;47.54;75794.44;4880257;29;20029;-85
2024/03/01 11:49:01;;;;;;;0.20;0.20;;;;;;;17.76;47.56;75765.19;4880437;29;20052;-85
2024/03/01 11:51:41;;;;;;;0.20;0.20;;;;;;;18.15;47.21;75808.03;4860034;29;20046;-84
2024/03/01 11:55:12;;;;;;;0.20;0.20;;;;;;;18.36;46.46;75826.44;4892493;29;20065;-85
2024/03/01 11:58:27;;;;;;;0.20;0.20;;;;;;;17.60;47.20;75743.19;4886758;29;20013;-85
2024/03/01 12:01:36;;;;;;;0.20;0.20;;;;;;;17.65;46.88;75749.19;4828317;29;20051;-84
2024/03/01 12:04:39;;;;;;;0.20;0.20;;;;;;;18.04;46.87;75797.63;4810195;29;20058;-85
2024/03/01 12:07:27;;;;;;;0.20;0.20;;;;;;;17.10;48.07;75678.78;4826260;29;20056;-85
2024/03/01 12:10:29;;;;;;;0.20;0.20;;;;;;;17.36;48.50;75717.16;4804639;29;20126;-85
2024/03/01 12:13:19;;;;;;;0.20;0.20;;;;;;;17.71;49.68;75753.59;4886196;29;20016;-85
2024/03/01 12:16:59;;;;;;;0.20;0.20;;;;;;;17.38;50.92;75716.78;4857071;29;20045;-85
2024/03/01 12:19:47;;;;;;;0.20;0.20;;;;;;;17.36;52.05;75717.16;4818376;29;20088;-85
2024/03/01 12:26:21;;;;;;;0.20;0.20;;;;;;;17.55;49.04;75734.97;4808960;30;20054;-86
2024/03/01 12:29:31;;;;;;;0.20;0.20;;;;;;;17.73;49.13;75761.59;4785985;30;20035;-86
2024/03/01 12:32:36;;;;;;;0.13;0.13;;;;;;;16.67;51.47;75633.97;4803208;29;20043;-84
2024/03/01 12:35:48;;;;;;;0.20;0.20;;;;;;;17.08;51.11;75681.97;4818325;29;20042;-86
2024/03/01 12:38:36;;;;;;;0.20;0.20;;;;;;;16.99;51.95;75668.38;4804543;29;20050;-86
2024/03/01 12:41:50;;;;;;;0.20;0.20;;;;;;;16.94;52.81;75663.00;4806193;29;20031;-85
2024/03/01 12:44:34;;;;;;;;;;;;;;;17.18;52.65;75687.78;4839956;29;20062;-85
2024/03/01 12:47:17;;;;;;;0.20;0.20;;;;;;;16.97;52.52;75668.78;4858705;29;19917;-85
2024/03/01 12:50:38;;;;;;;0.20;0.20;;;;;;;17.42;52.72;75719.38;4865755;29;20501;-87
2024/03/01 12:54:04;;;;;;;0.20;0.20;;;;;;;16.69;51.91;75639.16;4873728;29;20044;-86
2024/03/01 12:57:15;;;;;;;0.20;0.20;;;;;;;17.02;50.67;75671.97;4880731;29;20046;-85
2024/03/01 13:00:13;;;;;;;0.20;0.20;;;;;;;17.09;49.92;75685.97;4864784;29;20093;-84
2024/03/01 13:02:58;;;;;;;0.20;0.20;;;;;;;16.79;52.37;75647.19;4854217;29;20107;-83
2024/03/01 13:05:51;;;;;;;0.20;0.20;;;;;;;16.49;51.61;75612.38;4884045;29;20049;-87
2024/03/01 13:08:47;;;;;;;0.20;0.20;;;;;;;16.24;54.93;75586.38;4875368;29;20110;-87
2024/03/01 13:11:47;;;;;;;0.20;0.20;;;;;;;16.39;54.44;75597.56;4883700;29;20041;-87
2024/03/01 13:15:30;;;;;;;0.20;0.20;;;;;;;16.66;55.10;75632.75;4870594;29;20060;-86
2024/03/01 13:18:38;;;;;;;0.20;0.20;;;;;;;15.70;58.50;75513.84;4809898;29;20034;-87
2024/03/01 13:22:24;;;;;;;0.20;0.20;;;;;;;16.27;58.01;75586.56;4812126;29;20023;-86
2024/03/01 13:25:07;;;;;;;0.20;0.20;;;;;;;15.87;58.48;75537.03;4868708;29;20049;-85
2024/03/01 13:28:02;;;;;;;0.20;0.20;;;;;;;16.01;57.46;75558.78;4879467;29;20173;-84
2024/03/01 13:30:36;;;;;;;0.20;0.20;;;;;;;15.45;58.45;75487.25;4880416;29;20029;-85
2024/03/01 13:33:43;;;;;;;0.20;0.20;;;;;;;15.74;59.00;75526.41;4892832;29;20045;-85
2024/03/01 13:36:20;;;;;;;0.20;0.20;;;;;;;15.24;60.19;75462.69;4897500;29;20043;-86
2024/03/01 13:39:37;;;;;;;0.20;0.20;;;;;;;15.28;61.52;75467.47;4856402;29;20040;-85
2024/03/01 13:42:57;;;;;;;0.20;0.20;;;;;;;15.41;66.89;75488.63;4886131;29;20041;-87
2024/03/01 13:45:36;;;;;;;0.20;0.20;;;;;;;15.65;68.26;75508.44;4887159;29;20108;-86
2024/03/01 13:48:27;;;;;;;0.20;0.20;;;;;;;15.45;70.12;75492.84;4895256;29;20124;-86
2024/03/01 13:50:56;;;;;;;0.20;0.20;;;;;;;15.62;70.50;75513.22;4876470;29;20052;-86
2024/03/01 13:53:25;;;;;;;0.20;0.20;;;;;;;15.58;70.15;75505.63;4877415;29;20180;-86
2024/03/01 13:55:54;;;;;;;0.20;0.20;;;;;;;15.66;67.38;75515.25;4878982;29;20032;-86
2024/03/01 13:58:21;;;;;;;0.20;0.20;;;;;;;16.03;65.85;75555.00;4912644;29;20052;-86
2024/03/01 14:00:57;;;;;;;0.20;0.20;;;;;;;16.17;64.51;75575.19;4897972;29;20052;-84
2024/03/01 14:03:26;;;;;;;0.20;0.20;;;;;;;16.26;64.02;75582.00;4913888;29;20028;-85
2024/03/01 14:05:56;;;;;;;0.20;0.20;;;;;;;16.61;63.18;75623.97;4917007;29;20035;-85
2024/03/01 14:08:28;;;;;;;0.20;0.20;;;;;;;15.89;63.62;75538.81;4914390;29;20048;-86
2024/03/01 14:10:59;;;;;;;0.20;0.20;;;;;;;16.24;64.19;75580.81;4900039;29;20064;-85
2024/03/01 14:17:06;;;;;;;0.20;0.20;;;;;;;15.83;65.60;75537.22;5337682;23;20073;-87
2024/03/01 14:19:38;;;;;;;0.20;0.20;;;;;;;15.76;65.65;75523.22;4849242;29;20042;-86
2024/03/01 14:22:30;;;;;;;0.20;0.20;;;;;;;15.68;66.98;75520.41;4866166;29;20051;-86
2024/03/01 14:25:02;;;;;;;0.20;0.20;;;;;;;15.49;69.14;75491.44;4865261;29;20029;-87
2024/03/01 14:27:29;;;;;;;0.20;0.20;;;;;;;14.88;74.29;75422.94;4832854;29;20046;-85
2024/03/01 14:30:24;;;;;;;0.20;0.20;;;;;;;14.70;75.29;75398.56;4835000;29;20038;-86
2024/03/01 14:33:17;;;;;;;;;;;;;;;15.22;73.81;75465.84;4810795;29;20039;-85
2024/03/01 14:35:46;;;;;;;;;;;;;;;14.37;78.05;75360.22;4824009;29;19973;-86
2024/03/01 14:39:01;;;;;;;0.20;0.20;;;;;;;14.58;75.69;75385.38;4826158;29;19917;-87
2024/03/01 14:41:58;;;;;;;0.20;0.20;;;;;;;14.40;73.92;75369.38;4776686;29;20039;-86
2024/03/01 14:45:01;;;;;;;0.20;0.20;;;;;;;14.99;73.78;75438.28;4792817;29;20055;-87